Time;durP1;ratioP1;P1;durP2;ratioP2;P2;SDS_P1;SDS_P2;PMS_P1;PMS_P2;Temp;Humidity;BMP_temperature;BMP_pressure;BME280_temperature;BME280_humidity;BME280_pressure;Samples;Min_cycle;Max_cycle;Signal;HPM_P1;HPM_P2
2023/09/06 00:00:43;;;;;;;6.10;3.25;;;;;;;-141.50;100.00;63355.56;5035649;28;20041;-81
2023/09/06 00:03:12;;;;;;;6.00;3.60;;;;;;;-141.50;100.00;63355.56;5030445;28;20099;-80
2023/09/06 00:05:42;;;;;;;6.55;3.45;;;;;;;-141.50;100.00;63355.56;5034044;28;20037;-82
2023/09/06 00:08:09;;;;;;;6.07;3.38;;;;;;;-141.50;100.00;63355.56;5051590;28;20049;-82
2023/09/06 00:10:38;;;;;;;7.30;3.80;;;;;;;-141.50;100.00;63355.56;5032536;28;20052;-81
2023/09/06 00:13:10;;;;;;;6.72;3.72;;;;;;;-141.50;100.00;63355.56;5056100;28;20080;-82
2023/09/06 00:15:37;;;;;;;7.20;3.63;;;;;;;-141.50;100.00;63355.56;5047599;28;20067;-81
2023/09/06 00:18:06;;;;;;;7.50;3.47;;;;;;;-141.50;100.00;63355.56;5038537;28;20057;-81
2023/09/06 00:20:36;;;;;;;9.02;3.55;;;;;;;-141.50;100.00;63355.56;5054614;28;20044;-81
2023/09/06 00:23:12;;;;;;;6.07;3.65;;;;;;;-141.50;100.00;63355.56;5032449;28;20053;-81
2023/09/06 00:25:39;;;;;;;;;;;;;;;-141.50;100.00;63355.56;5038792;28;20540;-81
2023/09/06 00:28:09;;;;;;;7.88;3.97;;;;;;;-141.50;100.00;63355.56;5037933;28;19959;-81
2023/09/06 00:30:39;;;;;;;6.47;4.00;;;;;;;-141.50;100.00;63355.56;5054957;28;20067;-82
2023/09/06 00:33:07;;;;;;;7.65;3.75;;;;;;;-141.50;100.00;63355.56;5038484;28;20049;-81
2023/09/06 00:35:34;;;;;;;6.30;3.95;;;;;;;-141.50;100.00;63355.56;5056408;28;20044;-82
2023/09/06 00:38:01;;;;;;;6.30;3.67;;;;;;;-141.50;100.00;63355.56;5039016;28;20151;-81
2023/09/06 00:40:29;;;;;;;6.07;3.72;;;;;;;-141.50;100.00;63355.56;5037087;28;20065;-79
2023/09/06 00:43:01;;;;;;;5.95;3.55;;;;;;;-141.50;100.00;63355.56;5014644;28;20048;-80
2023/09/06 00:45:30;;;;;;;5.43;3.42;;;;;;;-141.50;100.00;63355.56;5042471;28;20068;-80
2023/09/06 00:47:58;;;;;;;7.00;4.18;;;;;;;-141.50;100.00;63355.56;5024467;28;20612;-80
2023/09/06 00:50:26;;;;;;;6.38;3.88;;;;;;;-141.50;100.00;63355.56;5042171;28;20049;-81
2023/09/06 00:52:53;;;;;;;7.68;3.80;;;;;;;-141.50;100.00;63355.56;5042903;28;20040;-82
2023/09/06 00:55:20;;;;;;;7.47;4.07;;;;;;;-141.50;100.00;63355.56;5039028;28;20044;-80
2023/09/06 00:57:47;;;;;;;6.30;3.75;;;;;;;-141.50;100.00;63355.56;5013072;28;20099;-79
2023/09/06 01:00:17;;;;;;;6.38;3.92;;;;;;;-141.50;100.00;63355.56;5040340;28;20057;-81
2023/09/06 01:02:46;;;;;;;8.75;4.50;;;;;;;-141.50;100.00;63355.56;5049107;28;20084;-81
2023/09/06 01:05:17;;;;;;;8.40;3.83;;;;;;;-141.50;100.00;63355.56;5061163;28;20318;-80
2023/09/06 01:07:48;;;;;;;6.53;4.18;;;;;;;-141.50;100.00;63355.56;5025989;28;20072;-80
2023/09/06 01:10:15;;;;;;;6.82;3.78;;;;;;;-141.50;100.00;63355.56;5060790;28;20873;-83
2023/09/06 01:12:42;;;;;;;7.22;4.32;;;;;;;-141.50;100.00;63355.56;5060028;28;20475;-80
2023/09/06 01:15:11;;;;;;;6.80;3.67;;;;;;;-141.50;100.00;63355.56;5037512;28;20040;-82
2023/09/06 01:17:43;;;;;;;7.63;4.07;;;;;;;-141.50;100.00;63355.56;5043793;28;20045;-81
2023/09/06 01:20:17;;;;;;;6.00;3.83;;;;;;;-141.50;100.00;63355.56;5061641;28;20044;-80
2023/09/06 01:22:56;;;;;;;7.35;4.43;;;;;;;-141.50;100.00;63355.56;5061897;28;21578;-81
2023/09/06 01:25:23;;;;;;;8.55;4.55;;;;;;;-141.50;100.00;63355.56;5046056;28;20045;-81
2023/09/06 01:27:50;;;;;;;8.88;4.88;;;;;;;-141.50;100.00;63355.56;5061073;28;20052;-80
2023/09/06 01:30:18;;;;;;;6.57;3.95;;;;;;;-141.50;100.00;63355.56;5027716;28;20037;-80
2023/09/06 01:32:45;;;;;;;6.68;3.85;;;;;;;-141.50;100.00;63355.56;5028837;28;20137;-81
2023/09/06 01:35:12;;;;;;;9.73;4.05;;;;;;;-141.50;100.00;63355.56;5030018;28;20071;-81
2023/09/06 01:37:39;;;;;;;6.50;4.03;;;;;;;-141.50;100.00;63355.56;5046287;28;20080;-80
2023/09/06 01:40:15;;;;;;;6.90;4.38;;;;;;;-141.50;100.00;63355.56;5058350;28;20064;-80
2023/09/06 01:42:42;;;;;;;;;;;;;;;-141.50;100.00;63355.56;5042087;28;20045;-81
2023/09/06 01:45:10;;;;;;;7.20;4.15;;;;;;;-141.50;100.00;63355.56;5065043;28;19921;-82
2023/09/06 01:47:37;;;;;;;8.38;3.97;;;;;;;-141.50;100.00;63355.56;5057118;28;20057;-82
2023/09/06 01:50:04;;;;;;;6.93;4.20;;;;;;;-141.50;100.00;63355.56;5034615;28;20056;-82
2023/09/06 01:52:31;;;;;;;7.40;4.03;;;;;;;-141.50;100.00;63355.56;5059286;28;20045;-82
2023/09/06 01:54:58;;;;;;;6.95;4.03;;;;;;;-141.50;100.00;63355.56;5026225;28;20610;-80
2023/09/06 01:57:25;;;;;;;8.45;4.35;;;;;;;-141.50;100.00;63355.56;5022466;28;20127;-81
2023/09/06 01:59:52;;;;;;;7.45;4.45;;;;;;;-141.50;100.00;63355.56;5058258;28;20136;-80
2023/09/06 02:02:19;;;;;;;7.85;4.50;;;;;;;-141.50;100.00;63355.56;5042622;28;20060;-81
2023/09/06 02:04:46;;;;;;;7.43;4.78;;;;;;;-141.50;100.00;63355.56;5014953;28;20060;-80
2023/09/06 02:07:14;;;;;;;9.60;5.40;;;;;;;-141.50;100.00;63355.56;5040199;28;20042;-81
2023/09/06 02:09:41;;;;;;;8.00;4.65;;;;;;;-141.50;100.00;63355.56;5039451;28;20067;-80
2023/09/06 02:12:13;;;;;;;7.63;4.50;;;;;;;-141.50;100.00;63355.56;5037998;28;20053;-83
2023/09/06 02:14:41;;;;;;;7.50;4.70;;;;;;;-141.50;100.00;63355.56;5043679;28;20113;-81
2023/09/06 02:17:07;;;;;;;6.25;4.00;;;;;;;-141.50;100.00;63355.56;5065182;28;20051;-80
2023/09/06 02:19:34;;;;;;;8.05;4.70;;;;;;;-141.50;100.00;63355.56;5026023;28;20061;-81
2023/09/06 02:22:01;;;;;;;7.03;4.60;;;;;;;-141.50;100.00;63355.56;5043919;28;20051;-80
2023/09/06 02:24:28;;;;;;;7.50;4.43;;;;;;;-141.50;100.00;63355.56;5043791;28;20045;-79
2023/09/06 02:26:55;;;;;;;7.70;4.50;;;;;;;-141.50;100.00;63355.56;5027402;28;20047;-79
2023/09/06 02:29:21;;;;;;;7.15;4.32;;;;;;;-141.50;100.00;63355.56;5040979;28;20390;-80
2023/09/06 02:31:48;;;;;;;8.15;5.05;;;;;;;-141.50;100.00;63355.56;5039478;28;20357;-80
2023/09/06 02:34:15;;;;;;;8.50;4.97;;;;;;;-141.50;100.00;63355.56;5040982;28;20049;-81
2023/09/06 02:36:42;;;;;;;7.93;4.90;;;;;;;-141.50;100.00;63355.56;5056491;28;20040;-81
2023/09/06 02:39:10;;;;;;;8.45;4.82;;;;;;;-141.50;100.00;63355.56;5037231;28;20084;-81
2023/09/06 02:41:37;;;;;;;8.18;4.88;;;;;;;-141.50;100.00;63355.56;5052161;28;20056;-80
2023/09/06 02:44:05;;;;;;;8.18;4.78;;;;;;;-141.50;100.00;63355.56;5034393;28;20141;-81
2023/09/06 02:46:34;;;;;;;7.60;4.68;;;;;;;-141.50;100.00;63355.56;5063221;28;20065;-80
2023/09/06 02:49:11;;;;;;;8.48;4.82;;;;;;;-141.50;100.00;63355.56;5039962;28;21737;-80
2023/09/06 02:51:38;;;;;;;9.80;5.20;;;;;;;-141.50;100.00;63355.56;5040061;28;20045;-81
2023/09/06 02:54:05;;;;;;;9.80;5.03;;;;;;;-141.50;100.00;63355.56;5039828;28;20060;-80
2023/09/06 02:56:34;;;;;;;7.55;4.95;;;;;;;-141.50;100.00;63355.56;5042223;28;20072;-81
2023/09/06 02:59:02;;;;;;;8.57;5.07;;;;;;;-141.50;100.00;63355.56;5032347;28;20824;-80
2023/09/06 03:01:35;;;;;;;8.88;5.20;;;;;;;-141.50;100.00;63355.56;5023539;28;20047;-81
2023/09/06 03:04:06;;;;;;;10.30;5.28;;;;;;;-141.50;100.00;63355.56;5039152;28;20057;-81
2023/09/06 03:06:33;;;;;;;8.20;4.88;;;;;;;-141.50;100.00;63355.56;5018048;28;20108;-82
2023/09/06 03:09:07;;;;;;;8.52;4.80;;;;;;;-141.50;100.00;63355.56;5064605;28;20419;-81
2023/09/06 03:11:36;;;;;;;8.43;4.43;;;;;;;-141.50;100.00;63355.56;5040532;28;20041;-80
2023/09/06 03:14:04;;;;;;;9.48;4.80;;;;;;;-141.50;100.00;63355.56;5032983;28;20059;-79
2023/09/06 03:16:42;;;;;;;7.40;4.50;;;;;;;-141.50;100.00;63355.56;5038702;28;20041;-79
2023/09/06 03:19:10;;;;;;;8.02;4.78;;;;;;;-141.50;100.00;63355.56;5060994;28;20495;-80
2023/09/06 03:21:39;;;;;;;8.77;5.10;;;;;;;-141.50;100.00;63355.56;5022997;28;20056;-79
2023/09/06 03:24:12;;;;;;;9.13;4.90;;;;;;;-141.50;100.00;63355.56;5046815;28;20071;-80
2023/09/06 03:26:43;;;;;;;9.35;4.38;;;;;;;-141.50;100.00;63355.56;5037185;28;20045;-80
2023/09/06 03:29:15;;;;;;;8.38;4.82;;;;;;;-141.50;100.00;63355.56;5036506;28;20055;-82
2023/09/06 03:31:45;;;;;;;8.13;5.05;;;;;;;-141.50;100.00;63355.56;5042760;28;20048;-81
2023/09/06 03:34:13;;;;;;;10.35;5.10;;;;;;;-141.50;100.00;63355.56;5029706;28;20095;-82
2023/09/06 03:36:46;;;;;;;9.00;4.75;;;;;;;-141.50;100.00;63355.56;5024666;28;20481;-82
2023/09/06 03:39:14;;;;;;;9.38;5.22;;;;;;;-141.50;100.00;63355.56;5036079;28;20040;-82
2023/09/06 03:41:42;;;;;;;7.57;4.65;;;;;;;-141.50;100.00;63355.56;5042048;28;20449;-82
2023/09/06 03:44:08;;;;;;;7.10;4.22;;;;;;;-141.50;100.00;63355.56;5039860;28;20120;-79
2023/09/06 03:46:35;;;;;;;8.70;4.78;;;;;;;-141.50;100.00;63355.56;5034847;28;20060;-81
2023/09/06 03:49:05;;;;;;;7.65;4.93;;;;;;;-141.50;100.00;63355.56;5038684;28;20057;-81
2023/09/06 03:51:32;;;;;;;8.52;5.30;;;;;;;-141.50;100.00;63355.56;5024610;28;20045;-82
2023/09/06 03:54:00;;;;;;;8.35;4.72;;;;;;;-141.50;100.00;63355.56;5055644;28;21370;-82
2023/09/06 03:56:27;;;;;;;9.02;5.70;;;;;;;-141.50;100.00;63355.56;5040733;28;20091;-81
2023/09/06 03:58:54;;;;;;;9.63;5.03;;;;;;;-141.50;100.00;63355.56;5020590;28;20049;-81
2023/09/06 04:01:25;;;;;;;6.60;4.35;;;;;;;-141.50;100.00;63355.56;5017781;28;20053;-82
2023/09/06 04:03:54;;;;;;;8.68;4.75;;;;;;;-141.50;100.00;63355.56;5047605;28;20060;-80
2023/09/06 04:06:21;;;;;;;8.07;4.72;;;;;;;-141.50;100.00;63355.56;5032448;28;20090;-81
2023/09/06 04:08:50;;;;;;;9.27;4.93;;;;;;;-141.50;100.00;63355.56;5019323;28;20053;-82
2023/09/06 04:11:17;;;;;;;8.68;5.20;;;;;;;-141.50;100.00;63355.56;5040350;28;20101;-82
2023/09/06 04:13:44;;;;;;;8.55;5.05;;;;;;;-141.50;100.00;63355.56;5032635;28;20065;-81
2023/09/06 04:16:14;;;;;;;10.90;5.03;;;;;;;-141.50;100.00;63355.56;5036031;28;20118;-81
2023/09/06 04:18:42;;;;;;;7.97;4.82;;;;;;;-141.50;100.00;63355.56;5034547;28;20407;-82
2023/09/06 04:21:10;;;;;;;6.43;4.38;;;;;;;-141.50;100.00;63355.56;5054154;28;20045;-82
2023/09/06 04:23:40;;;;;;;8.35;4.78;;;;;;;-141.50;100.00;63355.56;5018737;28;20101;-80
2023/09/06 04:26:09;;;;;;;8.55;4.57;;;;;;;-141.50;100.00;63355.56;5018020;28;20481;-79
2023/09/06 04:28:36;;;;;;;9.32;4.65;;;;;;;-141.50;100.00;63355.56;4997461;28;20041;-80
2023/09/06 04:31:05;;;;;;;10.88;4.82;;;;;;;-141.50;100.00;63355.56;5025662;28;20060;-79
2023/09/06 04:33:36;;;;;;;9.15;5.00;;;;;;;-141.50;100.00;63355.56;5024938;28;20133;-79
2023/09/06 04:36:18;;;;;;;7.13;4.43;;;;;;;-141.50;100.00;63355.56;5043953;28;20115;-80
2023/09/06 04:38:48;;;;;;;10.55;5.25;;;;;;;-141.50;100.00;63355.56;5028775;28;20124;-79
2023/09/06 04:41:15;;;;;;;11.02;5.32;;;;;;;-141.50;100.00;63355.56;5025559;28;20057;-78
2023/09/06 04:43:49;;;;;;;9.43;5.22;;;;;;;-141.50;100.00;63355.56;5013694;28;20064;-76
2023/09/06 04:46:16;;;;;;;8.27;5.10;;;;;;;-141.50;100.00;63355.56;5041927;28;20045;-80
2023/09/06 04:48:47;;;;;;;10.93;5.95;;;;;;;-141.50;100.00;63355.56;5037067;28;20056;-77
2023/09/06 04:51:14;;;;;;;13.50;5.80;;;;;;;-141.50;100.00;63355.56;5030910;28;20041;-78
2023/09/06 04:53:42;;;;;;;11.38;5.50;;;;;;;-141.50;100.00;63355.56;5031442;28;20049;-78
2023/09/06 04:56:13;;;;;;;9.93;5.50;;;;;;;-141.50;100.00;63355.56;5010173;28;20580;-80
2023/09/06 04:58:46;;;;;;;10.48;5.68;;;;;;;-141.50;100.00;63355.56;5032322;28;20045;-79
2023/09/06 05:01:13;;;;;;;9.73;4.85;;;;;;;-141.50;100.00;63355.56;5034225;28;20045;-81
2023/09/06 05:03:40;;;;;;;7.85;4.70;;;;;;;-141.50;100.00;63355.56;5047916;28;20037;-79
2023/09/06 05:06:07;;;;;;;9.77;4.80;;;;;;;-141.50;100.00;63355.56;5029643;28;20053;-79
2023/09/06 05:08:35;;;;;;;9.10;4.95;;;;;;;-141.50;100.00;63355.56;5026642;28;20044;-77
2023/09/06 05:11:08;;;;;;;8.70;4.78;;;;;;;-141.50;100.00;63355.56;5032255;28;20357;-78
2023/09/06 05:13:38;;;;;;;9.07;4.95;;;;;;;-141.50;100.00;63355.56;5030778;28;20387;-78
2023/09/06 05:16:07;;;;;;;7.97;4.47;;;;;;;-141.50;100.00;63355.56;5014794;28;20049;-80
2023/09/06 05:18:34;;;;;;;10.35;4.97;;;;;;;-141.50;100.00;63355.56;5035489;28;20045;-79
2023/09/06 05:21:04;;;;;;;9.55;5.53;;;;;;;-141.50;100.00;63355.56;5020608;28;20055;-80
2023/09/06 05:23:33;;;;;;;10.50;5.35;;;;;;;-141.50;100.00;63355.56;5012279;28;20054;-77
2023/09/06 05:26:00;;;;;;;8.40;5.20;;;;;;;-141.50;100.00;63355.56;5022451;28;20049;-79
2023/09/06 05:28:32;;;;;;;9.15;5.10;;;;;;;-141.50;100.00;63355.56;5002909;28;20041;-78
2023/09/06 05:31:02;;;;;;;8.88;4.93;;;;;;;-141.50;100.00;63355.56;5025016;28;20049;-77
2023/09/06 05:33:36;;;;;;;9.35;5.30;;;;;;;-141.50;100.00;63355.56;5022160;28;20288;-78
2023/09/06 05:36:03;;;;;;;8.00;4.57;;;;;;;-141.50;100.00;63355.56;5015239;28;20640;-78
2023/09/06 05:38:31;;;;;;;11.07;5.25;;;;;;;-141.50;100.00;63355.56;5009952;28;20048;-78
2023/09/06 05:41:01;;;;;;;8.93;5.30;;;;;;;-141.50;100.00;63355.56;5027292;28;20844;-77
2023/09/06 05:43:32;;;;;;;9.40;4.97;;;;;;;-141.50;100.00;63355.56;5023071;28;20037;-78
2023/09/06 05:45:59;;;;;;;7.93;4.30;;;;;;;-141.50;100.00;63355.56;5032874;28;20375;-79
2023/09/06 05:48:27;;;;;;;8.00;4.70;;;;;;;-141.50;100.00;63355.56;5025242;28;20503;-81
2023/09/06 05:50:55;;;;;;;7.93;4.55;;;;;;;-141.50;100.00;63355.56;5039356;28;20109;-84
2023/09/06 05:53:24;;;;;;;7.60;4.50;;;;;;;-141.50;100.00;63355.56;5034891;28;20498;-82
2023/09/06 05:55:51;;;;;;;6.68;4.40;;;;;;;-141.50;100.00;63355.56;5060430;28;20612;-82
2023/09/06 05:58:19;;;;;;;7.15;4.53;;;;;;;-141.50;100.00;63355.56;5044771;28;20081;-83
2023/09/06 06:00:45;;;;;;;8.35;4.60;;;;;;;-141.50;100.00;63355.56;5043415;28;20121;-83
2023/09/06 06:03:12;;;;;;;8.80;4.85;;;;;;;-141.50;100.00;63355.56;5038546;28;20198;-82
2023/09/06 06:05:39;;;;;;;9.85;4.95;;;;;;;-141.50;100.00;63355.56;5033221;28;20072;-83
2023/09/06 06:08:09;;;;;;;9.32;4.90;;;;;;;-141.50;100.00;63355.56;5042873;28;20095;-83
2023/09/06 06:10:36;;;;;;;8.50;4.35;;;;;;;-141.50;100.00;63355.56;5042364;28;20041;-83
2023/09/06 06:13:04;;;;;;;8.35;4.47;;;;;;;-141.50;100.00;63355.56;5060105;28;20053;-82
2023/09/06 06:15:31;;;;;;;8.25;4.03;;;;;;;-141.50;100.00;63355.56;5016212;28;20072;-82
2023/09/06 06:17:58;;;;;;;8.23;4.38;;;;;;;-141.50;100.00;63355.56;5060992;28;20053;-82
2023/09/06 06:20:25;;;;;;;7.40;4.28;;;;;;;-141.50;100.00;63355.56;5027339;28;20055;-81
2023/09/06 06:23:07;;;;;;;6.78;4.32;;;;;;;-141.50;100.00;63355.56;5025772;28;20052;-82
2023/09/06 06:25:34;;;;;;;7.60;4.10;;;;;;;-141.50;100.00;63355.56;5058794;28;20048;-82
2023/09/06 06:28:00;;;;;;;8.13;3.85;;;;;;;-141.50;100.00;63355.56;5040683;28;20451;-82
2023/09/06 06:30:28;;;;;;;6.22;3.78;;;;;;;-141.50;100.00;63355.56;5058905;28;20060;-82
2023/09/06 06:32:55;;;;;;;8.90;3.95;;;;;;;-141.50;100.00;63355.56;5054207;28;20041;-82
2023/09/06 06:35:22;;;;;;;5.78;3.50;;;;;;;-141.50;100.00;63355.56;5064967;28;20045;-82
2023/09/06 06:37:49;;;;;;;7.70;4.05;;;;;;;-141.50;100.00;63355.56;5027273;28;20099;-81
2023/09/06 06:40:17;;;;;;;11.23;3.60;;;;;;;-141.50;100.00;63355.56;5030457;28;20044;-82
2023/09/06 06:42:46;;;;;;;8.30;3.92;;;;;;;-141.50;100.00;63355.56;5064165;28;20041;-82
2023/09/06 06:45:13;;;;;;;5.47;3.30;;;;;;;-141.50;100.00;63355.56;5064914;28;20044;-82
2023/09/06 06:47:43;;;;;;;7.75;3.90;;;;;;;-141.50;100.00;63355.56;5063068;28;20041;-82
2023/09/06 06:50:10;;;;;;;5.82;3.22;;;;;;;-141.50;100.00;63355.56;5027424;28;20052;-82
2023/09/06 06:52:43;;;;;;;5.95;3.67;;;;;;;-141.50;100.00;63355.56;5041558;28;20045;-82
2023/09/06 06:55:10;;;;;;;7.13;3.58;;;;;;;-141.50;100.00;63355.56;5053265;28;20049;-81
2023/09/06 06:57:37;;;;;;;7.88;3.30;;;;;;;-141.50;100.00;63355.56;5040221;28;20534;-82
2023/09/06 07:00:05;;;;;;;8.55;3.97;;;;;;;-141.50;100.00;63355.56;5057061;28;20057;-80
2023/09/06 07:02:34;;;;;;;7.47;3.35;;;;;;;-141.50;100.00;63355.56;5064172;28;20049;-81
2023/09/06 07:05:03;;;;;;;6.07;3.35;;;;;;;-141.50;100.00;63355.56;5040200;28;20601;-79
2023/09/06 07:07:30;;;;;;;7.25;3.60;;;;;;;-141.50;100.00;63355.56;5040565;28;20037;-82
2023/09/06 07:09:56;;;;;;;7.38;2.80;;;;;;;-141.50;100.00;63355.56;5016372;28;20275;-80
2023/09/06 07:12:23;;;;;;;5.63;3.00;;;;;;;-141.50;100.00;63355.56;5030243;28;20039;-81
2023/09/06 07:14:54;;;;;;;4.28;2.60;;;;;;;-141.50;100.00;63355.56;5014681;28;20040;-81
2023/09/06 07:17:20;;;;;;;7.30;3.72;;;;;;;-141.50;100.00;63355.56;5005347;28;20041;-81
2023/09/06 07:19:48;;;;;;;6.43;2.85;;;;;;;-141.50;100.00;63355.56;5033253;28;20041;-81
2023/09/06 07:22:15;;;;;;;5.53;2.58;;;;;;;-141.50;100.00;63355.56;5048373;28;20060;-80
2023/09/06 07:24:45;;;;;;;6.32;2.72;;;;;;;-141.50;100.00;63355.56;5030128;28;20502;-81
2023/09/06 07:27:11;;;;;;;5.97;2.70;;;;;;;-141.50;100.00;63355.56;5041791;28;20094;-81
2023/09/06 07:29:39;;;;;;;4.25;2.42;;;;;;;-141.50;100.00;63355.56;5049447;28;20068;-82
2023/09/06 07:32:06;;;;;;;6.20;2.38;;;;;;;-141.50;100.00;63355.56;5050435;28;20055;-81
2023/09/06 07:34:33;;;;;;;3.80;2.17;;;;;;;-141.50;100.00;63355.56;5033288;28;20099;-81
2023/09/06 07:36:59;;;;;;;5.40;2.50;;;;;;;-141.50;100.00;63355.56;5034971;28;20049;-80
2023/09/06 07:39:26;;;;;;;3.90;2.25;;;;;;;-141.50;100.00;63355.56;5035923;28;20456;-80
2023/09/06 07:41:54;;;;;;;5.20;2.15;;;;;;;-141.50;100.00;63355.56;5052910;28;21870;-81
2023/09/06 07:44:20;;;;;;;3.08;1.90;;;;;;;-141.50;100.00;63355.56;5036692;28;20076;-81
2023/09/06 07:46:51;;;;;;;3.53;2.05;;;;;;;-141.50;100.00;63355.56;5037396;28;20086;-80
2023/09/06 07:49:23;;;;;;;3.38;2.00;;;;;;;-141.50;100.00;63355.56;5038650;28;20104;-81
2023/09/06 07:51:50;;;;;;;5.35;2.15;;;;;;;-141.50;100.00;63355.56;5039420;28;20170;-81
2023/09/06 07:54:18;;;;;;;8.05;1.65;;;;;;;-141.50;100.00;63355.56;5040884;28;20044;-82
2023/09/06 07:56:47;;;;;;;3.78;1.73;;;;;;;-141.50;100.00;63355.56;5035352;28;20116;-81
2023/09/06 07:59:14;;;;;;;3.30;1.75;;;;;;;-141.50;100.00;63355.56;5045242;28;20065;-82
2023/09/06 08:01:41;;;;;;;3.90;1.95;;;;;;;-141.50;100.00;63355.56;5007287;28;20064;-81
2023/09/06 08:04:09;;;;;;;2.63;1.80;;;;;;;-141.50;100.00;63355.56;5048302;28;20051;-81
2023/09/06 08:06:37;;;;;;;2.55;1.80;;;;;;;-141.50;100.00;63355.56;5028850;28;20033;-82
2023/09/06 08:09:07;;;;;;;3.65;1.90;;;;;;;-141.50;100.00;63355.56;5034572;28;20068;-82
2023/09/06 08:11:33;;;;;;;4.03;1.88;;;;;;;-141.50;100.00;63355.56;5047292;28;20099;-81
2023/09/06 08:14:00;;;;;;;4.10;1.85;;;;;;;-141.50;100.00;63355.56;5052312;28;20159;-81
2023/09/06 08:16:27;;;;;;;3.08;1.95;;;;;;;-141.50;100.00;63355.56;5018040;28;20041;-81
2023/09/06 08:18:55;;;;;;;4.43;2.13;;;;;;;-141.50;100.00;63355.56;5026620;28;20041;-81
2023/09/06 08:21:22;;;;;;;3.25;1.85;;;;;;;-141.50;100.00;63355.56;5029371;28;20455;-81
2023/09/06 08:23:49;;;;;;;3.97;2.30;;;;;;;-141.50;100.00;63355.56;5012108;28;20041;-82
2023/09/06 08:26:16;;;;;;;3.35;1.92;;;;;;;-141.50;100.00;63355.56;5027527;28;20060;-80
2023/09/06 08:28:42;;;;;;;5.28;2.30;;;;;;;-141.50;100.00;63355.56;5029101;28;20103;-80
2023/09/06 08:31:09;;;;;;;5.50;2.15;;;;;;;-141.50;100.00;63355.56;5017338;28;20063;-82
2023/09/06 08:33:37;;;;;;;4.20;2.03;;;;;;;-141.50;100.00;63355.56;5037962;28;20587;-81
2023/09/06 08:36:04;;;;;;;3.65;2.22;;;;;;;-141.50;100.00;63355.56;5033154;28;20057;-82
2023/09/06 08:38:34;;;;;;;2.88;1.88;;;;;;;-141.50;100.00;63355.56;5040788;28;20041;-80
2023/09/06 08:41:02;;;;;;;3.30;1.88;;;;;;;-141.50;100.00;63355.56;5051600;28;20164;-81
2023/09/06 08:43:35;;;;;;;3.22;1.77;;;;;;;-141.50;100.00;63355.56;5033061;28;21112;-80
2023/09/06 08:46:11;;;;;;;3.83;1.80;;;;;;;-141.50;100.00;63355.56;5052496;28;20049;-82
2023/09/06 08:48:39;;;;;;;3.03;1.92;;;;;;;-141.50;100.00;63355.56;5037708;28;20033;-81
2023/09/06 08:51:07;;;;;;;3.33;1.75;;;;;;;-141.50;100.00;63355.56;5062086;28;20107;-83
2023/09/06 08:53:34;;;;;;;3.20;1.80;;;;;;;-141.50;100.00;63355.56;5030040;28;20064;-80
2023/09/06 08:56:03;;;;;;;4.07;1.77;;;;;;;-141.50;100.00;63355.56;5028688;28;20049;-82
2023/09/06 08:58:31;;;;;;;2.60;1.90;;;;;;;-141.50;100.00;63355.56;5033129;28;20666;-82
2023/09/06 09:00:58;;;;;;;3.58;1.80;;;;;;;-141.50;100.00;63355.56;5059283;28;20057;-82
2023/09/06 09:03:25;;;;;;;4.00;2.10;;;;;;;-141.50;100.00;63355.56;5043732;28;20068;-81
2023/09/06 09:05:59;;;;;;;2.45;1.70;;;;;;;-141.50;100.00;63355.56;5042756;28;20053;-82
2023/09/06 09:08:29;;;;;;;3.10;1.70;;;;;;;-141.50;100.00;63355.56;5059365;28;20099;-82
2023/09/06 09:11:14;;;;;;;2.55;1.50;;;;;;;-141.50;100.00;63355.56;5029108;28;20057;-80
2023/09/06 09:13:42;;;;;;;3.10;1.90;;;;;;;-141.50;100.00;63355.56;5041237;28;20679;-81
2023/09/06 09:16:11;;;;;;;2.63;1.75;;;;;;;-141.50;100.00;63355.56;5026386;28;20045;-81
2023/09/06 09:18:39;;;;;;;3.67;2.13;;;;;;;-141.50;100.00;63355.56;5050627;28;20056;-81
2023/09/06 09:21:11;;;;;;;3.83;1.70;;;;;;;-141.50;100.00;63355.56;5051852;28;20071;-80
2023/09/06 09:23:46;;;;;;;3.30;2.00;;;;;;;-141.50;100.00;63355.56;5050844;28;20767;-80
2023/09/06 09:26:16;;;;;;;3.50;1.70;;;;;;;-141.50;100.00;63355.56;5041841;28;20422;-80
2023/09/06 09:28:43;;;;;;;3.08;2.05;;;;;;;-141.50;100.00;63355.56;5032868;28;20053;-81
2023/09/06 09:31:15;;;;;;;2.90;1.90;;;;;;;-141.50;100.00;63355.56;5047789;28;20132;-81
2023/09/06 09:33:45;;;;;;;2.85;1.48;;;;;;;-141.50;100.00;63355.56;5032484;28;20044;-81
2023/09/06 09:36:14;;;;;;;2.60;1.88;;;;;;;-141.50;100.00;63355.56;5045411;28;20072;-81
2023/09/06 09:38:46;;;;;;;3.20;1.88;;;;;;;-141.50;100.00;63355.56;5022911;28;20052;-80
2023/09/06 09:41:14;;;;;;;2.40;1.50;;;;;;;-141.50;100.00;63355.56;5058371;28;20067;-80
2023/09/06 09:43:40;;;;;;;2.72;1.65;;;;;;;-141.50;100.00;63355.56;5036270;28;20098;-81
2023/09/06 09:46:08;;;;;;;2.92;1.80;;;;;;;-141.50;100.00;63355.56;5039584;28;20041;-81
2023/09/06 09:48:36;;;;;;;3.45;2.28;;;;;;;-141.50;100.00;63355.56;5041819;28;20395;-81
2023/09/06 09:51:07;;;;;;;3.33;1.60;;;;;;;-141.50;100.00;63355.56;5053845;28;20082;-81
2023/09/06 09:53:37;;;;;;;2.92;1.73;;;;;;;-141.50;100.00;63355.56;5037391;28;20057;-81
2023/09/06 09:56:06;;;;;;;3.58;1.80;;;;;;;-141.50;100.00;63355.56;5056593;28;20801;-80
2023/09/06 09:58:36;;;;;;;3.00;2.00;;;;;;;-141.50;100.00;63355.56;5022804;28;20116;-82
2023/09/06 10:01:06;;;;;;;2.13;1.50;;;;;;;-141.50;100.00;63355.56;5035650;28;20056;-82
2023/09/06 10:03:34;;;;;;;1.98;1.58;;;;;;;-141.50;100.00;63355.56;5045660;28;20100;-81
2023/09/06 10:06:05;;;;;;;3.28;1.50;;;;;;;-141.50;100.00;63355.56;5040893;28;20064;-81
2023/09/06 10:08:33;;;;;;;2.08;1.60;;;;;;;-141.50;100.00;63355.56;5052710;28;20231;-81
2023/09/06 10:11:00;;;;;;;2.65;1.40;;;;;;;-141.50;100.00;63355.56;5029586;28;20457;-81
2023/09/06 10:13:27;;;;;;;2.80;1.48;;;;;;;-141.50;100.00;63355.56;5008530;28;20044;-80
2023/09/06 10:15:56;;;;;;;1.90;1.50;;;;;;;-141.50;100.00;63355.56;5023942;28;20041;-79
2023/09/06 10:18:24;;;;;;;4.22;1.73;;;;;;;-141.50;100.00;63355.56;5012605;28;20041;-79
2023/09/06 10:20:51;;;;;;;3.38;1.70;;;;;;;-141.50;100.00;63355.56;5043617;28;20041;-80
2023/09/06 10:23:19;;;;;;;2.22;1.60;;;;;;;-141.50;100.00;63355.56;5033120;28;20045;-79
2023/09/06 10:25:50;;;;;;;2.05;1.33;;;;;;;-141.50;100.00;63355.56;5057001;28;20041;-80
2023/09/06 10:28:32;;;;;;;2.90;1.58;;;;;;;-141.50;100.00;63355.56;5062189;28;20068;-80
2023/09/06 10:31:07;;;;;;;2.80;1.85;;;;;;;-141.50;100.00;63355.56;5047950;28;20072;-79
2023/09/06 10:33:47;;;;;;;2.88;1.90;;;;;;;-141.50;100.00;63355.56;5048839;28;20053;-81
2023/09/06 10:36:15;;;;;;;2.67;1.55;;;;;;;-141.50;100.00;63355.56;5036918;28;20097;-78
2023/09/06 10:38:52;;;;;;;2.60;1.60;;;;;;;-141.50;100.00;63355.56;5041291;28;20049;-80
2023/09/06 10:41:20;;;;;;;3.08;1.55;;;;;;;-141.50;100.00;63355.56;5037362;28;20114;-80
2023/09/06 10:43:55;;;;;;;2.15;1.40;;;;;;;-141.50;100.00;63355.56;5037179;28;20052;-82
2023/09/06 10:46:27;;;;;;;2.10;1.43;;;;;;;-141.50;100.00;63355.56;5043477;28;20057;-81
2023/09/06 10:49:12;;;;;;;1.40;1.20;;;;;;;-141.50;100.00;63355.56;5031121;28;20048;-81
2023/09/06 10:51:55;;;;;;;2.17;1.45;;;;;;;-141.50;100.00;63355.56;5050543;28;20036;-81
2023/09/06 10:54:34;;;;;;;2.13;1.50;;;;;;;-141.50;100.00;63355.56;5040514;28;21750;-81
2023/09/06 10:57:05;;;;;;;2.78;1.40;;;;;;;-141.50;100.00;63355.56;5052475;28;20052;-81
2023/09/06 10:59:43;;;;;;;2.20;1.70;;;;;;;-141.50;100.00;63355.56;5056755;28;20028;-81
2023/09/06 11:02:22;;;;;;;2.67;1.67;;;;;;;-141.50;100.00;63355.56;5071585;28;20075;-81
2023/09/06 11:05:08;;;;;;;1.92;1.42;;;;;;;-141.50;100.00;63355.56;5044109;28;20293;-80
2023/09/06 11:07:45;;;;;;;2.03;1.60;;;;;;;-141.50;100.00;63355.56;5049614;28;20052;-82
2023/09/06 11:10:22;;;;;;;1.92;1.60;;;;;;;-141.50;100.00;63355.56;5059227;28;20878;-81
2023/09/06 11:12:53;;;;;;;2.15;1.40;;;;;;;-141.50;100.00;63355.56;5046492;28;20076;-81
2023/09/06 11:15:24;;;;;;;1.75;1.30;;;;;;;-141.50;100.00;63355.56;5047017;28;20041;-82
2023/09/06 11:17:57;;;;;;;2.25;1.55;;;;;;;-141.50;100.00;63355.56;5021923;28;20053;-81